Coal Springs, South Dakota
Current Conditions -  °F | °C
As of 11:53 PM on Thursday 30 Oct 2014 (Local Time) from KHEI Reporting Station
Overcast Overcast  
Wind Chill: 21°   Ceiling: 800
Heat Index: 30°   Visibility: 10mi
Dew Point: 26°   Wind: 10mph
Humidity: 85%   Direction: 140°SE
Pressure: 30.51"   Gusts: NA
Location:  45.2919°N, 102.298°W
Report Text: KHEI 310553Z AUTO 14009KT 10SM OVC008 M01/M03 A3051 RMK AO2 SLP358 T10111033 10017 21011 50004
Loading
Personal Weather Stations






























Interactive Weather Map
Tropical Storm Tracking
New forecast layout! Learn more

10-Day Weather Forecast

Advertisements
Track Severe Weather on mobile